AirNav   Duncan Aviation - Near you to keep you flying
 
 1035 users online  

AZ61 G M Ranch Airport
Stanfield, Arizona, USA

GOING TO STANFIELD?


FAA INFORMATION EFFECTIVE 04 NOVEMBER 2021

Location

FAA Identifier: AZ61
Lat/Long: 32-54-06.1780N 112-14-16.5210W
32-54.102967N 112-14.275350W
32.9017161,-112.2379225
(estimated)
Elevation: 1616 ft. / 493 m (estimated)
Variation: 13E (1985)
From city: 9 miles E of STANFIELD, AZ
Time zone: UTC -7 (year round; does not observe DST)
Zip code: 85239

Airport Operations

Airport use: Private use. Permission required prior to landing
Activation date: 12/1982
Control tower: no
ARTCC: ALBUQUERQUE CENTER
FSS: PRESCOTT FLIGHT SERVICE STATION
Attendance: CONTINUOUS
Wind indicator: yes
Segmented circle: no

Airport Communications

WX AWOS-3 at A39 (17 nm E): 126.900 (520-568-7704)

Nearby radio navigation aids

VOR radial/distance  VOR name  Freq  Var
TFDr261/16.6STANFIELD VORTAC114.8012E
GBNr084/22.2GILA BEND VORTAC116.6014E
PXRr191/34.6PHOENIX VORTAC115.6012E
IWAr218/38.1WILLIE VORTAC113.3013E

Airport Services

Runway Information

Runway 17/35

Dimensions: 2640 x 80 ft. / 805 x 24 m
Surface: dirt
RUNWAY 17  RUNWAY 35
Traffic pattern: leftleft

Airport Ownership and Management from official FAA records

Ownership: Privately-owned
Owner: MICHAEL A. PARKER
RT 1 BOX 3364
SHOWLOW, AZ 85901
Phone 602-537-7904
Manager: GRACE L. PARKER
P O BOX 42
STANFIELD, AZ 85272

Airport Operational Statistics

Aircraft based on the field: 1
Single engine airplanes: 1
    

Additional Remarks

FOR CD CTC LUKE APCH AT 623-856-7361. IF UNA, CTC PHOENIX APCH AT 602-306-2565.

Instrument Procedures

There are no published instrument procedures at AZ61.

Some nearby airports with instrument procedures:

KCGZ - Casa Grande Municipal Airport (24 nm E)
P19 - Stellar Airpark (29 nm NE)
KCHD - Chandler Municipal Airport (31 nm NE)
KGYR - Phoenix Goodyear Airport (32 nm N)
KPHX - Phoenix Sky Harbor International Airport (34 nm N)
 
Loc | Ops | Rwys | IFR | FBO | Links
Com | Nav | Svcs | Stats | Notes
Area around AZ61 (G M Ranch Airport)
 
Road maps at: MapQuest Bing Google
 
Aerial photo
No photo
 
Sectional chart

 
Airport distance calculator
Flying to G M Ranch Airport? Find the distance to fly.

From to AZ61

Sunrise and sunset
Times for 30-Nov-2021
 Local
(UTC-7)
 Zulu
(UTC)
Morning civil twilight06:4713:47
Sunrise07:1414:14
Sunset17:2100:21
Evening civil twilight17:4800:48

Current date and time
Zulu (UTC)  01-Dec-2021 03:42:36
Local (UTC-7)  30-Nov-2021 20:42:36
 
METAR
KA39 
17nm E 
010315Z AUTO 36005KT 10SM BKN090 OVC110 16/M03 A3009 RMK AO2
KCGZ 
24nm E 
010256Z AUTO 01003KT 10SM CLR 17/M03 A3005 RMK AO2 SLP173 6//// T01671028 53014
KGXF 
24nm W 
010258Z 05005KT 10SM BKN250 19/M03 A3001 RMK AO2A SLP158 T01931029 52016 $
KCHD 
30nm NE 
010247Z 00000KT 10SM SCT200 19/01 A3004
KGYR 
32nm N 
010247Z 00000KT 10SM FEW180 16/03 A3003
KPHX 
33nm N 
010251Z 27003KT 10SM CLR 19/M01 A3001 RMK AO2 SLP155 T01891006 53014
TAF
KPHX 
33nm N 
302036Z 3021/0124 19003KT P6SM SCT250 FM302200 27005KT P6SM SCT250 FM010500 09005KT P6SM FEW250 FM012200 27005KT P6SM SKC
KLUF 
37nm N 
302000Z 3020/0202 19006KT 9999 FEW250 QNH2998INS BECMG 0102/0103 VRB06KT 9999 SKC QNH3001INS TX26/3023Z TN09/0114Z
KIWA 
38nm NE 
301720Z 3018/0118 VRB05KT P6SM SCT200 FM302100 28005KT P6SM SCT250 FM010500 10005KT P6SM FEW250
NOTAMs
Click for the latest NOTAMs
NOTAMs are issued by the DoD/FAA and will open in a separate window not controlled by AirNav.

 

 
 

Would you like to see your business listed on this page?

 If your business provides an interesting product or service to pilots, flight crews, aircraft, or users of the G M Ranch Airport, you should consider listing it here.  To start the listing process, click on the button below
 
Add a business
 

Other Pages about G M Ranch Airport

Update a link
 
Copyright © AirNav, LLC. All rights reserved. Privacy Policy  Contact